Tokyo, Japan

11:55 AM JST on September 01, 2015 (GMT +0900)
Tokyo (Haneda) International | | Change Station
CLOSE
Current Station
Airport
Location: Tokyo,
Elevation: 26 ft
Nearby Weather Stations

Elev 26 ft 35.55 °N, 139.78 °E | Updated 4 minutes ago

Light Rain Showers
Light Showers Rain Mist
73 °F
Feels Like 73 °F
N
8
Wind Variable Wind from East

Today
High -- | Low -- °F
--% Chance of Precip.
Yesterday
High -- | Low -- °F
Precip. -- in
5:12 AM 6:09 PM
Waning Gibbous, 92% visible
Pressure 29.98 in
Visibility 3.7 miles
Clouds Few 800 ft
Scattered Clouds 1300 ft
Mostly Cloudy 2500 ft
Dew Point 72 °F
Humidity 94%
Rainfall 0.00 in
Snow Depth Not available.
UV 5 out of 12
Pollen Not available.
Air Quality Not available.
Flu Activity Not available.
SPECI RJTT 010251Z 09007KT 6000 -SHRA BR FEW008 SCT013 BKN025 23/22 Q1015 RMK 1ST008 3CU013 6CU025 A2997 MOD TURB OBS AT 0245Z 10NM W ADDUM BTN FL150 AND 13000FT BY B737 P/FR BR N-NE
Pressure 29.98 in
Visibility 3.7 miles
Clouds Few 800 ft
Scattered Clouds 1300 ft
Mostly Cloudy 2500 ft
Dew Point 72 °F
Humidity 94%
Rainfall 0.00 in
Snow Depth Not available.
UV 5 out of 12
Pollen Not available.
Air Quality Not available.
Flu Activity Not available.
SPECI RJTT 010251Z 09007KT 6000 -SHRA BR FEW008 SCT013 BKN025 23/22 Q1015 RMK 1ST008 3CU013 6CU025 A2997 MOD TURB OBS AT 0245Z 10NM W ADDUM BTN FL150 AND 13000FT BY B737 P/FR BR N-NE

10-Day Weather Forecast

×

Almanac

Astronomy

Sep. 01, 2015 Rise Set
Actual Time
Civil Twilight
Nautical Twilight
Astronomical Twilight
Moon
Length of Visible Light
Length of Day
Tomorrow will be .
, % of the Moon is Illuminated

Today's Extremes

Country Highs Country Lows

Community

WunderPhotos

Upload Photos

1,851,459 photos uploaded!

WunderBlogs® & News

Nearby

Air Quality

  Air Quality AQ Index Pollutant
Not available.

Snow Depth

Station Depth Elevation

Earthquake Activity

City Distance Mag. Time & Date
Minimum magnitude displayed is 2.5.

Coastal Water Temperatures

Place Temperature

Stations

Nearby Weather Stations

Station Location Temp. Windchill Dew Point Humidity Wind Precip. Elev Updated Type